sensor_id;sensor_type;location;lat;lon;timestamp;P1;durP1;ratioP1;P2;durP2;ratioP2
52494;SDS011;38405;53.212;5.660;2022-07-09T00:00:09;9.40;;;3.17;;
52494;SDS011;38405;53.212;5.660;2022-07-09T00:02:36;8.15;;;3.25;;
52494;SDS011;38405;53.212;5.660;2022-07-09T00:05:02;27.70;;;4.18;;
52494;SDS011;38405;53.212;5.660;2022-07-09T00:07:28;9.70;;;3.13;;
52494;SDS011;38405;53.212;5.660;2022-07-09T00:09:53;9.50;;;3.20;;
52494;SDS011;38405;53.212;5.660;2022-07-09T00:12:19;11.45;;;3.67;;
52494;SDS011;38405;53.212;5.660;2022-07-09T00:14:45;13.75;;;4.07;;
52494;SDS011;38405;53.212;5.660;2022-07-09T00:17:10;10.90;;;3.80;;
52494;SDS011;38405;53.212;5.660;2022-07-09T00:19:36;12.40;;;3.53;;
52494;SDS011;38405;53.212;5.660;2022-07-09T00:22:02;14.27;;;3.67;;
52494;SDS011;38405;53.212;5.660;2022-07-09T00:24:27;6.03;;;3.53;;
52494;SDS011;38405;53.212;5.660;2022-07-09T00:26:53;13.55;;;3.90;;
52494;SDS011;38405;53.212;5.660;2022-07-09T00:29:19;8.02;;;3.70;;
52494;SDS011;38405;53.212;5.660;2022-07-09T00:31:45;10.57;;;3.33;;
52494;SDS011;38405;53.212;5.660;2022-07-09T00:34:11;9.18;;;2.90;;
52494;SDS011;38405;53.212;5.660;2022-07-09T00:36:37;7.38;;;3.67;;
52494;SDS011;38405;53.212;5.660;2022-07-09T00:39:03;9.73;;;2.90;;
52494;SDS011;38405;53.212;5.660;2022-07-09T00:41:29;7.53;;;3.15;;
52494;SDS011;38405;53.212;5.660;2022-07-09T00:43:55;10.13;;;3.15;;
52494;SDS011;38405;53.212;5.660;2022-07-09T00:46:20;8.65;;;3.08;;
52494;SDS011;38405;53.212;5.660;2022-07-09T00:48:46;9.35;;;3.10;;
52494;SDS011;38405;53.212;5.660;2022-07-09T00:51:12;6.35;;;3.00;;
52494;SDS011;38405;53.212;5.660;2022-07-09T00:53:39;10.05;;;3.13;;
52494;SDS011;38405;53.212;5.660;2022-07-09T00:56:05;5.75;;;3.17;;
52494;SDS011;38405;53.212;5.660;2022-07-09T00:58:31;10.43;;;3.45;;
52494;SDS011;38405;53.212;5.660;2022-07-09T01:00:58;10.15;;;3.00;;
52494;SDS011;38405;53.212;5.660;2022-07-09T01:03:24;5.03;;;2.70;;
52494;SDS011;38405;53.212;5.660;2022-07-09T01:05:50;5.32;;;3.05;;
52494;SDS011;38405;53.212;5.660;2022-07-09T01:08:16;6.45;;;3.10;;
52494;SDS011;38405;53.212;5.660;2022-07-09T01:10:41;7.65;;;3.25;;
52494;SDS011;38405;53.212;5.660;2022-07-09T01:13:07;7.00;;;3.30;;
52494;SDS011;38405;53.212;5.660;2022-07-09T01:15:33;8.40;;;3.60;;
52494;SDS011;38405;53.212;5.660;2022-07-09T01:17:58;5.65;;;3.10;;
52494;SDS011;38405;53.212;5.660;2022-07-09T01:20:25;6.93;;;3.72;;
52494;SDS011;38405;53.212;5.660;2022-07-09T01:22:51;12.77;;;4.05;;
52494;SDS011;38405;53.212;5.660;2022-07-09T01:25:17;11.40;;;3.88;;
52494;SDS011;38405;53.212;5.660;2022-07-09T01:27:44;8.02;;;3.80;;
52494;SDS011;38405;53.212;5.660;2022-07-09T01:30:11;6.30;;;3.65;;
52494;SDS011;38405;53.212;5.660;2022-07-09T01:32:48;7.32;;;3.67;;
52494;SDS011;38405;53.212;5.660;2022-07-09T01:35:13;7.47;;;3.00;;
52494;SDS011;38405;53.212;5.660;2022-07-09T01:37:39;7.75;;;3.20;;
52494;SDS011;38405;53.212;5.660;2022-07-09T01:40:05;10.43;;;3.20;;
52494;SDS011;38405;53.212;5.660;2022-07-09T01:42:31;5.68;;;3.45;;
52494;SDS011;38405;53.212;5.660;2022-07-09T01:44:57;5.43;;;2.92;;
52494;SDS011;38405;53.212;5.660;2022-07-09T01:47:22;11.98;;;3.38;;
52494;SDS011;38405;53.212;5.660;2022-07-09T01:49:48;4.75;;;2.92;;
52494;SDS011;38405;53.212;5.660;2022-07-09T01:52:13;6.75;;;3.47;;
52494;SDS011;38405;53.212;5.660;2022-07-09T01:54:39;8.45;;;3.53;;
52494;SDS011;38405;53.212;5.660;2022-07-09T01:57:05;7.75;;;3.50;;
52494;SDS011;38405;53.212;5.660;2022-07-09T01:59:31;10.18;;;3.83;;
52494;SDS011;38405;53.212;5.660;2022-07-09T02:01:56;6.03;;;3.20;;
52494;SDS011;38405;53.212;5.660;2022-07-09T02:04:22;8.05;;;3.33;;
52494;SDS011;38405;53.212;5.660;2022-07-09T02:06:48;8.95;;;3.58;;
52494;SDS011;38405;53.212;5.660;2022-07-09T02:09:13;8.20;;;3.50;;
52494;SDS011;38405;53.212;5.660;2022-07-09T02:11:39;11.38;;;4.07;;
52494;SDS011;38405;53.212;5.660;2022-07-09T02:14:04;7.40;;;3.65;;
52494;SDS011;38405;53.212;5.660;2022-07-09T02:16:30;13.35;;;3.90;;
52494;SDS011;38405;53.212;5.660;2022-07-09T02:18:56;8.50;;;3.58;;
52494;SDS011;38405;53.212;5.660;2022-07-09T02:21:21;12.40;;;3.88;;
52494;SDS011;38405;53.212;5.660;2022-07-09T02:23:47;6.28;;;3.35;;
52494;SDS011;38405;53.212;5.660;2022-07-09T02:26:14;7.63;;;3.53;;
52494;SDS011;38405;53.212;5.660;2022-07-09T02:28:40;8.07;;;3.05;;
52494;SDS011;38405;53.212;5.660;2022-07-09T02:31:06;6.43;;;2.80;;
52494;SDS011;38405;53.212;5.660;2022-07-09T02:33:32;6.20;;;3.60;;
52494;SDS011;38405;53.212;5.660;2022-07-09T02:35:58;6.43;;;3.13;;
52494;SDS011;38405;53.212;5.660;2022-07-09T02:38:24;10.50;;;3.80;;
52494;SDS011;38405;53.212;5.660;2022-07-09T02:40:49;8.85;;;3.70;;
52494;SDS011;38405;53.212;5.660;2022-07-09T02:43:15;12.52;;;4.20;;
52494;SDS011;38405;53.212;5.660;2022-07-09T02:45:41;6.75;;;3.20;;
52494;SDS011;38405;53.212;5.660;2022-07-09T02:48:06;8.10;;;3.92;;
52494;SDS011;38405;53.212;5.660;2022-07-09T02:50:32;18.13;;;4.35;;
52494;SDS011;38405;53.212;5.660;2022-07-09T02:52:58;8.77;;;3.47;;
52494;SDS011;38405;53.212;5.660;2022-07-09T02:55:23;5.53;;;3.03;;
52494;SDS011;38405;53.212;5.660;2022-07-09T02:57:49;11.45;;;3.40;;
52494;SDS011;38405;53.212;5.660;2022-07-09T03:00:14;9.38;;;3.30;;
52494;SDS011;38405;53.212;5.660;2022-07-09T03:02:40;7.07;;;3.40;;
52494;SDS011;38405;53.212;5.660;2022-07-09T03:05:06;7.15;;;3.33;;
52494;SDS011;38405;53.212;5.660;2022-07-09T03:07:32;8.02;;;3.15;;
52494;SDS011;38405;53.212;5.660;2022-07-09T03:09:57;8.07;;;3.70;;
52494;SDS011;38405;53.212;5.660;2022-07-09T03:12:23;7.90;;;3.80;;
52494;SDS011;38405;53.212;5.660;2022-07-09T03:14:48;8.73;;;3.70;;
52494;SDS011;38405;53.212;5.660;2022-07-09T03:17:14;8.60;;;3.97;;
52494;SDS011;38405;53.212;5.660;2022-07-09T03:19:40;7.30;;;3.40;;
52494;SDS011;38405;53.212;5.660;2022-07-09T03:22:05;10.43;;;4.30;;
52494;SDS011;38405;53.212;5.660;2022-07-09T03:24:31;10.70;;;3.95;;
52494;SDS011;38405;53.212;5.660;2022-07-09T03:26:56;9.80;;;3.55;;
52494;SDS011;38405;53.212;5.660;2022-07-09T03:29:22;7.63;;;3.70;;
52494;SDS011;38405;53.212;5.660;2022-07-09T03:31:48;6.05;;;3.65;;
52494;SDS011;38405;53.212;5.660;2022-07-09T03:34:13;7.82;;;3.42;;
52494;SDS011;38405;53.212;5.660;2022-07-09T03:36:40;6.03;;;3.35;;
52494;SDS011;38405;53.212;5.660;2022-07-09T03:39:06;8.10;;;3.20;;
52494;SDS011;38405;53.212;5.660;2022-07-09T03:41:32;5.70;;;3.13;;
52494;SDS011;38405;53.212;5.660;2022-07-09T03:43:57;6.15;;;3.22;;
52494;SDS011;38405;53.212;5.660;2022-07-09T03:46:23;9.45;;;3.10;;
52494;SDS011;38405;53.212;5.660;2022-07-09T03:48:49;8.23;;;3.28;;
52494;SDS011;38405;53.212;5.660;2022-07-09T03:51:15;6.97;;;3.20;;
52494;SDS011;38405;53.212;5.660;2022-07-09T03:53:41;8.90;;;3.38;;
52494;SDS011;38405;53.212;5.660;2022-07-09T03:56:06;5.05;;;2.85;;
52494;SDS011;38405;53.212;5.660;2022-07-09T03:58:32;5.35;;;2.80;;
52494;SDS011;38405;53.212;5.660;2022-07-09T04:00:58;6.18;;;3.15;;
52494;SDS011;38405;53.212;5.660;2022-07-09T04:03:24;10.05;;;3.45;;
52494;SDS011;38405;53.212;5.660;2022-07-09T04:05:49;7.05;;;3.03;;
52494;SDS011;38405;53.212;5.660;2022-07-09T04:08:15;7.15;;;2.97;;
52494;SDS011;38405;53.212;5.660;2022-07-09T04:10:41;5.82;;;3.22;;
52494;SDS011;38405;53.212;5.660;2022-07-09T04:13:06;6.90;;;3.20;;
52494;SDS011;38405;53.212;5.660;2022-07-09T04:15:32;5.68;;;2.92;;
52494;SDS011;38405;53.212;5.660;2022-07-09T04:17:58;8.18;;;3.00;;
52494;SDS011;38405;53.212;5.660;2022-07-09T04:20:24;6.63;;;3.00;;
52494;SDS011;38405;53.212;5.660;2022-07-09T04:22:50;5.13;;;2.70;;
52494;SDS011;38405;53.212;5.660;2022-07-09T04:25:17;4.25;;;2.60;;
52494;SDS011;38405;53.212;5.660;2022-07-09T04:27:43;5.43;;;3.15;;
52494;SDS011;38405;53.212;5.660;2022-07-09T04:30:09;6.90;;;2.75;;
52494;SDS011;38405;53.212;5.660;2022-07-09T04:32:35;7.03;;;2.78;;
52494;SDS011;38405;53.212;5.660;2022-07-09T04:35:01;4.20;;;2.40;;
52494;SDS011;38405;53.212;5.660;2022-07-09T04:37:27;7.70;;;2.88;;
52494;SDS011;38405;53.212;5.660;2022-07-09T04:39:52;8.57;;;2.92;;
52494;SDS011;38405;53.212;5.660;2022-07-09T04:42:18;7.60;;;3.38;;
52494;SDS011;38405;53.212;5.660;2022-07-09T04:44:45;5.97;;;2.75;;
52494;SDS011;38405;53.212;5.660;2022-07-09T04:47:11;4.07;;;2.45;;
52494;SDS011;38405;53.212;5.660;2022-07-09T04:49:36;5.50;;;2.60;;
52494;SDS011;38405;53.212;5.660;2022-07-09T04:52:02;9.32;;;3.10;;
52494;SDS011;38405;53.212;5.660;2022-07-09T04:54:28;5.07;;;2.28;;
52494;SDS011;38405;53.212;5.660;2022-07-09T04:56:54;4.85;;;2.30;;
52494;SDS011;38405;53.212;5.660;2022-07-09T04:59:19;11.90;;;2.10;;
52494;SDS011;38405;53.212;5.660;2022-07-09T05:01:45;8.10;;;2.35;;
52494;SDS011;38405;53.212;5.660;2022-07-09T05:04:11;4.45;;;2.33;;
52494;SDS011;38405;53.212;5.660;2022-07-09T05:06:37;10.02;;;2.50;;
52494;SDS011;38405;53.212;5.660;2022-07-09T05:09:03;4.90;;;2.33;;
52494;SDS011;38405;53.212;5.660;2022-07-09T05:11:28;6.40;;;2.25;;
52494;SDS011;38405;53.212;5.660;2022-07-09T05:13:55;4.50;;;2.17;;
52494;SDS011;38405;53.212;5.660;2022-07-09T05:16:21;3.85;;;2.05;;
52494;SDS011;38405;53.212;5.660;2022-07-09T05:18:47;8.48;;;2.47;;
52494;SDS011;38405;53.212;5.660;2022-07-09T05:21:12;2.72;;;2.10;;
52494;SDS011;38405;53.212;5.660;2022-07-09T05:23:38;7.35;;;2.50;;
52494;SDS011;38405;53.212;5.660;2022-07-09T05:26:04;9.40;;;2.67;;
52494;SDS011;38405;53.212;5.660;2022-07-09T05:28:29;7.43;;;2.33;;
52494;SDS011;38405;53.212;5.660;2022-07-09T05:30:55;6.00;;;2.58;;
52494;SDS011;38405;53.212;5.660;2022-07-09T05:33:20;6.88;;;2.10;;
52494;SDS011;38405;53.212;5.660;2022-07-09T05:35:46;4.85;;;2.20;;
52494;SDS011;38405;53.212;5.660;2022-07-09T05:38:12;5.75;;;2.25;;
52494;SDS011;38405;53.212;5.660;2022-07-09T05:40:37;5.70;;;2.20;;
52494;SDS011;38405;53.212;5.660;2022-07-09T05:43:03;6.68;;;2.35;;
52494;SDS011;38405;53.212;5.660;2022-07-09T05:45:29;3.85;;;1.55;;
52494;SDS011;38405;53.212;5.660;2022-07-09T05:47:54;6.47;;;2.38;;
52494;SDS011;38405;53.212;5.660;2022-07-09T05:50:20;7.72;;;2.30;;
52494;SDS011;38405;53.212;5.660;2022-07-09T05:52:46;6.10;;;2.08;;
52494;SDS011;38405;53.212;5.660;2022-07-09T05:55:12;7.60;;;1.83;;
52494;SDS011;38405;53.212;5.660;2022-07-09T05:57:39;10.05;;;2.20;;
52494;SDS011;38405;53.212;5.660;2022-07-09T06:00:05;5.45;;;2.08;;
52494;SDS011;38405;53.212;5.660;2022-07-09T06:02:32;5.05;;;1.80;;
52494;SDS011;38405;53.212;5.660;2022-07-09T06:04:58;7.30;;;2.25;;
52494;SDS011;38405;53.212;5.660;2022-07-09T06:07:23;2.58;;;1.60;;
52494;SDS011;38405;53.212;5.660;2022-07-09T06:09:49;5.68;;;1.65;;
52494;SDS011;38405;53.212;5.660;2022-07-09T06:12:14;5.47;;;2.22;;
52494;SDS011;38405;53.212;5.660;2022-07-09T06:14:40;4.47;;;1.60;;
52494;SDS011;38405;53.212;5.660;2022-07-09T06:17:06;7.18;;;2.00;;
52494;SDS011;38405;53.212;5.660;2022-07-09T06:19:35;5.50;;;1.92;;
52494;SDS011;38405;53.212;5.660;2022-07-09T06:22:01;5.43;;;1.95;;
52494;SDS011;38405;53.212;5.660;2022-07-09T06:24:28;9.30;;;2.70;;
52494;SDS011;38405;53.212;5.660;2022-07-09T06:26:55;4.00;;;1.58;;
52494;SDS011;38405;53.212;5.660;2022-07-09T06:29:21;6.15;;;1.65;;
52494;SDS011;38405;53.212;5.660;2022-07-09T06:31:46;6.45;;;1.88;;
52494;SDS011;38405;53.212;5.660;2022-07-09T06:34:12;6.30;;;2.08;;
52494;SDS011;38405;53.212;5.660;2022-07-09T06:36:38;6.05;;;1.77;;
52494;SDS011;38405;53.212;5.660;2022-07-09T06:39:05;5.90;;;1.75;;
52494;SDS011;38405;53.212;5.660;2022-07-09T06:41:49;9.30;;;1.83;;
52494;SDS011;38405;53.212;5.660;2022-07-09T06:44:14;4.97;;;1.70;;
52494;SDS011;38405;53.212;5.660;2022-07-09T06:46:40;5.35;;;1.67;;
52494;SDS011;38405;53.212;5.660;2022-07-09T06:49:06;7.50;;;1.77;;
52494;SDS011;38405;53.212;5.660;2022-07-09T06:51:32;4.50;;;1.70;;
52494;SDS011;38405;53.212;5.660;2022-07-09T06:53:58;7.45;;;1.90;;
52494;SDS011;38405;53.212;5.660;2022-07-09T06:56:23;5.25;;;1.70;;
52494;SDS011;38405;53.212;5.660;2022-07-09T06:58:49;7.80;;;1.88;;
52494;SDS011;38405;53.212;5.660;2022-07-09T07:01:15;9.20;;;1.92;;
52494;SDS011;38405;53.212;5.660;2022-07-09T07:03:40;5.75;;;1.73;;
52494;SDS011;38405;53.212;5.660;2022-07-09T07:06:06;9.88;;;1.90;;
52494;SDS011;38405;53.212;5.660;2022-07-09T07:08:32;8.15;;;2.00;;
52494;SDS011;38405;53.212;5.660;2022-07-09T07:10:58;6.82;;;1.58;;
52494;SDS011;38405;53.212;5.660;2022-07-09T07:13:24;4.00;;;1.88;;
52494;SDS011;38405;53.212;5.660;2022-07-09T07:15:50;6.15;;;2.00;;
52494;SDS011;38405;53.212;5.660;2022-07-09T07:18:16;7.57;;;2.22;;
52494;SDS011;38405;53.212;5.660;2022-07-09T07:20:45;8.63;;;1.58;;
52494;SDS011;38405;53.212;5.660;2022-07-09T07:23:10;6.32;;;2.10;;
52494;SDS011;38405;53.212;5.660;2022-07-09T07:25:36;5.75;;;1.65;;
52494;SDS011;38405;53.212;5.660;2022-07-09T07:28:09;7.25;;;1.80;;
52494;SDS011;38405;53.212;5.660;2022-07-09T07:30:35;8.35;;;1.85;;
52494;SDS011;38405;53.212;5.660;2022-07-09T07:33:01;5.72;;;1.70;;
52494;SDS011;38405;53.212;5.660;2022-07-09T07:35:29;4.85;;;1.70;;
52494;SDS011;38405;53.212;5.660;2022-07-09T07:37:55;6.72;;;1.88;;
52494;SDS011;38405;53.212;5.660;2022-07-09T07:40:24;7.00;;;1.60;;
52494;SDS011;38405;53.212;5.660;2022-07-09T07:42:50;8.05;;;1.75;;
52494;SDS011;38405;53.212;5.660;2022-07-09T07:45:16;6.72;;;1.70;;
52494;SDS011;38405;53.212;5.660;2022-07-09T07:47:41;6.90;;;1.55;;
52494;SDS011;38405;53.212;5.660;2022-07-09T07:50:07;3.45;;;1.50;;
52494;SDS011;38405;53.212;5.660;2022-07-09T07:52:33;6.35;;;1.80;;
52494;SDS011;38405;53.212;5.660;2022-07-09T07:54:59;4.47;;;1.48;;
52494;SDS011;38405;53.212;5.660;2022-07-09T07:57:24;5.18;;;1.50;;
52494;SDS011;38405;53.212;5.660;2022-07-09T07:59:50;8.25;;;2.17;;
52494;SDS011;38405;53.212;5.660;2022-07-09T08:02:15;5.50;;;1.40;;
52494;SDS011;38405;53.212;5.660;2022-07-09T08:04:41;6.30;;;1.83;;
52494;SDS011;38405;53.212;5.660;2022-07-09T08:07:07;8.30;;;1.30;;
52494;SDS011;38405;53.212;5.660;2022-07-09T08:09:32;4.57;;;1.63;;
52494;SDS011;38405;53.212;5.660;2022-07-09T08:11:59;5.38;;;1.40;;
52494;SDS011;38405;53.212;5.660;2022-07-09T08:14:25;6.20;;;1.58;;
52494;SDS011;38405;53.212;5.660;2022-07-09T08:16:51;5.00;;;1.45;;
52494;SDS011;38405;53.212;5.660;2022-07-09T08:19:17;5.65;;;1.55;;
52494;SDS011;38405;53.212;5.660;2022-07-09T08:21:42;4.32;;;1.40;;
52494;SDS011;38405;53.212;5.660;2022-07-09T08:24:08;5.78;;;1.45;;
52494;SDS011;38405;53.212;5.660;2022-07-09T08:26:33;5.30;;;1.30;;
52494;SDS011;38405;53.212;5.660;2022-07-09T08:28:59;5.07;;;1.50;;
52494;SDS011;38405;53.212;5.660;2022-07-09T08:31:25;3.78;;;1.33;;
52494;SDS011;38405;53.212;5.660;2022-07-09T08:33:51;5.93;;;1.50;;
52494;SDS011;38405;53.212;5.660;2022-07-09T08:36:16;3.92;;;1.40;;
52494;SDS011;38405;53.212;5.660;2022-07-09T08:38:43;3.72;;;1.35;;
52494;SDS011;38405;53.212;5.660;2022-07-09T08:41:09;7.05;;;1.40;;
52494;SDS011;38405;53.212;5.660;2022-07-09T08:43:35;5.30;;;1.73;;
52494;SDS011;38405;53.212;5.660;2022-07-09T08:46:02;5.43;;;1.70;;
52494;SDS011;38405;53.212;5.660;2022-07-09T08:48:31;3.95;;;1.40;;
52494;SDS011;38405;53.212;5.660;2022-07-09T08:50:58;6.45;;;1.75;;
52494;SDS011;38405;53.212;5.660;2022-07-09T08:53:24;6.10;;;1.75;;
52494;SDS011;38405;53.212;5.660;2022-07-09T08:55:53;5.70;;;1.75;;
52494;SDS011;38405;53.212;5.660;2022-07-09T08:58:19;8.77;;;1.73;;
52494;SDS011;38405;53.212;5.660;2022-07-09T09:00:45;12.30;;;2.03;;
52494;SDS011;38405;53.212;5.660;2022-07-09T09:03:13;6.30;;;1.65;;
52494;SDS011;38405;53.212;5.660;2022-07-09T09:05:39;5.32;;;1.58;;
52494;SDS011;38405;53.212;5.660;2022-07-09T09:08:20;10.43;;;1.70;;
52494;SDS011;38405;53.212;5.660;2022-07-09T09:10:49;7.22;;;1.52;;
52494;SDS011;38405;53.212;5.660;2022-07-09T09:13:15;4.93;;;1.75;;
52494;SDS011;38405;53.212;5.660;2022-07-09T09:15:42;5.28;;;1.63;;
52494;SDS011;38405;53.212;5.660;2022-07-09T09:18:09;12.20;;;2.00;;
52494;SDS011;38405;53.212;5.660;2022-07-09T09:20:35;4.30;;;1.63;;
52494;SDS011;38405;53.212;5.660;2022-07-09T09:23:01;3.97;;;1.35;;
52494;SDS011;38405;53.212;5.660;2022-07-09T09:25:29;8.45;;;2.05;;
52494;SDS011;38405;53.212;5.660;2022-07-09T09:27:56;5.70;;;1.63;;
52494;SDS011;38405;53.212;5.660;2022-07-09T09:30:23;6.70;;;2.42;;
52494;SDS011;38405;53.212;5.660;2022-07-09T09:33:03;8.10;;;2.05;;
52494;SDS011;38405;53.212;5.660;2022-07-09T09:35:30;5.82;;;1.70;;
52494;SDS011;38405;53.212;5.660;2022-07-09T09:37:58;5.00;;;1.95;;
52494;SDS011;38405;53.212;5.660;2022-07-09T09:40:25;6.20;;;1.73;;
52494;SDS011;38405;53.212;5.660;2022-07-09T09:42:51;11.10;;;2.15;;
52494;SDS011;38405;53.212;5.660;2022-07-09T09:45:18;5.75;;;1.90;;
52494;SDS011;38405;53.212;5.660;2022-07-09T09:47:47;6.72;;;2.20;;
52494;SDS011;38405;53.212;5.660;2022-07-09T09:50:19;6.90;;;1.90;;
52494;SDS011;38405;53.212;5.660;2022-07-09T09:52:46;4.90;;;1.70;;
52494;SDS011;38405;53.212;5.660;2022-07-09T09:55:15;5.80;;;1.92;;
52494;SDS011;38405;53.212;5.660;2022-07-09T09:57:42;13.60;;;2.17;;
52494;SDS011;38405;53.212;5.660;2022-07-09T10:00:10;6.03;;;1.95;;
52494;SDS011;38405;53.212;5.660;2022-07-09T10:02:42;5.85;;;1.80;;
52494;SDS011;38405;53.212;5.660;2022-07-09T10:05:09;9.05;;;2.00;;
52494;SDS011;38405;53.212;5.660;2022-07-09T10:07:34;5.22;;;1.77;;
52494;SDS011;38405;53.212;5.660;2022-07-09T10:10:00;7.25;;;2.03;;
52494;SDS011;38405;53.212;5.660;2022-07-09T10:12:33;6.82;;;2.00;;
52494;SDS011;38405;53.212;5.660;2022-07-09T10:14:59;8.05;;;2.17;;
52494;SDS011;38405;53.212;5.660;2022-07-09T10:17:26;6.15;;;1.55;;
52494;SDS011;38405;53.212;5.660;2022-07-09T10:22:33;6.35;;;1.70;;
52494;SDS011;38405;53.212;5.660;2022-07-09T10:25:00;9.63;;;2.38;;
52494;SDS011;38405;53.212;5.660;2022-07-09T10:27:26;9.82;;;2.05;;
52494;SDS011;38405;53.212;5.660;2022-07-09T10:29:52;10.98;;;2.42;;
52494;SDS011;38405;53.212;5.660;2022-07-09T10:32:36;5.68;;;1.60;;
52494;SDS011;38405;53.212;5.660;2022-07-09T10:35:07;6.00;;;1.42;;
52494;SDS011;38405;53.212;5.660;2022-07-09T10:40:15;8.20;;;1.42;;
52494;SDS011;38405;53.212;5.660;2022-07-09T10:42:43;5.88;;;1.73;;
52494;SDS011;38405;53.212;5.660;2022-07-09T10:48:07;5.38;;;1.30;;
52494;SDS011;38405;53.212;5.660;2022-07-09T10:50:43;7.55;;;1.45;;
52494;SDS011;38405;53.212;5.660;2022-07-09T10:53:13;4.03;;;1.35;;
52494;SDS011;38405;53.212;5.660;2022-07-09T10:55:43;5.72;;;1.25;;
52494;SDS011;38405;53.212;5.660;2022-07-09T10:58:19;2.20;;;1.02;;
52494;SDS011;38405;53.212;5.660;2022-07-09T11:01:01;4.30;;;1.27;;
52494;SDS011;38405;53.212;5.660;2022-07-09T11:03:30;7.70;;;1.60;;
52494;SDS011;38405;53.212;5.660;2022-07-09T11:05:56;6.15;;;1.35;;
52494;SDS011;38405;53.212;5.660;2022-07-09T11:08:23;6.70;;;1.48;;
52494;SDS011;38405;53.212;5.660;2022-07-09T11:10:48;2.75;;;1.15;;
52494;SDS011;38405;53.212;5.660;2022-07-09T11:13:14;4.68;;;1.45;;
52494;SDS011;38405;53.212;5.660;2022-07-09T11:15:40;3.20;;;1.15;;
52494;SDS011;38405;53.212;5.660;2022-07-09T11:18:09;5.88;;;1.52;;
52494;SDS011;38405;53.212;5.660;2022-07-09T11:23:07;5.10;;;1.30;;
52494;SDS011;38405;53.212;5.660;2022-07-09T11:25:34;5.70;;;1.38;;
52494;SDS011;38405;53.212;5.660;2022-07-09T11:28:00;5.18;;;0.98;;
52494;SDS011;38405;53.212;5.660;2022-07-09T11:30:26;6.82;;;1.27;;
52494;SDS011;38405;53.212;5.660;2022-07-09T11:32:53;2.72;;;1.30;;
52494;SDS011;38405;53.212;5.660;2022-07-09T11:35:38;9.23;;;1.42;;
52494;SDS011;38405;53.212;5.660;2022-07-09T11:38:04;6.22;;;1.40;;
52494;SDS011;38405;53.212;5.660;2022-07-09T11:40:33;6.78;;;1.00;;
52494;SDS011;38405;53.212;5.660;2022-07-09T11:42:58;3.70;;;1.15;;
52494;SDS011;38405;53.212;5.660;2022-07-09T11:45:28;5.43;;;1.20;;
52494;SDS011;38405;53.212;5.660;2022-07-09T11:48:04;9.65;;;1.38;;
52494;SDS011;38405;53.212;5.660;2022-07-09T11:50:32;4.70;;;1.48;;
52494;SDS011;38405;53.212;5.660;2022-07-09T11:52:58;6.60;;;1.33;;
52494;SDS011;38405;53.212;5.660;2022-07-09T11:55:28;2.38;;;1.00;;
52494;SDS011;38405;53.212;5.660;2022-07-09T11:58:13;4.28;;;1.60;;
52494;SDS011;38405;53.212;5.660;2022-07-09T12:00:39;4.80;;;1.30;;
52494;SDS011;38405;53.212;5.660;2022-07-09T12:03:06;6.93;;;1.30;;
52494;SDS011;38405;53.212;5.660;2022-07-09T12:05:34;7.93;;;1.65;;
52494;SDS011;38405;53.212;5.660;2022-07-09T12:08:02;4.07;;;1.30;;
52494;SDS011;38405;53.212;5.660;2022-07-09T12:10:36;2.90;;;1.00;;
52494;SDS011;38405;53.212;5.660;2022-07-09T12:13:04;9.18;;;1.63;;
52494;SDS011;38405;53.212;5.660;2022-07-09T12:15:30;7.07;;;1.40;;
52494;SDS011;38405;53.212;5.660;2022-07-09T12:17:57;7.07;;;1.30;;
52494;SDS011;38405;53.212;5.660;2022-07-09T12:20:24;6.05;;;1.10;;
52494;SDS011;38405;53.212;5.660;2022-07-09T12:22:51;3.97;;;1.30;;
52494;SDS011;38405;53.212;5.660;2022-07-09T12:25:18;3.90;;;1.20;;
52494;SDS011;38405;53.212;5.660;2022-07-09T12:27:44;7.88;;;1.02;;
52494;SDS011;38405;53.212;5.660;2022-07-09T12:30:11;3.47;;;1.10;;
52494;SDS011;38405;53.212;5.660;2022-07-09T12:32:37;5.88;;;0.85;;
52494;SDS011;38405;53.212;5.660;2022-07-09T12:35:03;4.88;;;1.38;;
52494;SDS011;38405;53.212;5.660;2022-07-09T12:37:29;5.22;;;1.33;;
52494;SDS011;38405;53.212;5.660;2022-07-09T12:39:56;6.60;;;1.30;;
52494;SDS011;38405;53.212;5.660;2022-07-09T12:42:22;7.10;;;1.63;;
52494;SDS011;38405;53.212;5.660;2022-07-09T12:44:48;5.53;;;0.90;;
52494;SDS011;38405;53.212;5.660;2022-07-09T12:47:15;6.43;;;1.27;;
52494;SDS011;38405;53.212;5.660;2022-07-09T12:49:40;3.88;;;1.10;;
52494;SDS011;38405;53.212;5.660;2022-07-09T12:52:06;3.30;;;1.25;;
52494;SDS011;38405;53.212;5.660;2022-07-09T12:54:32;3.33;;;1.33;;
52494;SDS011;38405;53.212;5.660;2022-07-09T12:56:58;5.05;;;1.65;;
52494;SDS011;38405;53.212;5.660;2022-07-09T12:59:23;4.70;;;1.30;;
52494;SDS011;38405;53.212;5.660;2022-07-09T13:01:52;6.03;;;1.35;;
52494;SDS011;38405;53.212;5.660;2022-07-09T13:04:17;4.95;;;1.45;;
52494;SDS011;38405;53.212;5.660;2022-07-09T13:06:43;3.58;;;1.30;;
52494;SDS011;38405;53.212;5.660;2022-07-09T13:09:09;5.22;;;1.50;;
52494;SDS011;38405;53.212;5.660;2022-07-09T13:11:35;6.63;;;1.30;;
52494;SDS011;38405;53.212;5.660;2022-07-09T13:14:02;4.13;;;1.33;;
52494;SDS011;38405;53.212;5.660;2022-07-09T13:16:28;5.22;;;1.30;;
52494;SDS011;38405;53.212;5.660;2022-07-09T13:18:54;4.65;;;1.30;;
52494;SDS011;38405;53.212;5.660;2022-07-09T13:21:20;7.15;;;1.48;;
52494;SDS011;38405;53.212;5.660;2022-07-09T13:23:48;5.30;;;1.30;;
52494;SDS011;38405;53.212;5.660;2022-07-09T13:26:15;4.50;;;1.38;;
52494;SDS011;38405;53.212;5.660;2022-07-09T13:28:41;12.65;;;2.15;;
52494;SDS011;38405;53.212;5.660;2022-07-09T13:31:07;5.75;;;1.52;;
52494;SDS011;38405;53.212;5.660;2022-07-09T13:33:33;5.57;;;1.60;;
52494;SDS011;38405;53.212;5.660;2022-07-09T13:36:00;5.97;;;1.60;;
52494;SDS011;38405;53.212;5.660;2022-07-09T13:38:27;7.28;;;1.45;;
52494;SDS011;38405;53.212;5.660;2022-07-09T13:40:53;7.10;;;1.50;;
52494;SDS011;38405;53.212;5.660;2022-07-09T13:43:19;5.65;;;1.45;;
52494;SDS011;38405;53.212;5.660;2022-07-09T13:45:47;7.10;;;1.75;;
52494;SDS011;38405;53.212;5.660;2022-07-09T13:48:12;6.65;;;1.50;;
52494;SDS011;38405;53.212;5.660;2022-07-09T13:50:38;7.25;;;1.60;;
52494;SDS011;38405;53.212;5.660;2022-07-09T13:53:03;7.25;;;1.30;;
52494;SDS011;38405;53.212;5.660;2022-07-09T13:55:29;3.80;;;1.25;;
52494;SDS011;38405;53.212;5.660;2022-07-09T13:57:55;7.32;;;2.05;;
52494;SDS011;38405;53.212;5.660;2022-07-09T14:00:21;4.68;;;1.15;;
52494;SDS011;38405;53.212;5.660;2022-07-09T14:02:48;6.97;;;1.50;;
52494;SDS011;38405;53.212;5.660;2022-07-09T14:05:14;5.88;;;1.50;;
52494;SDS011;38405;53.212;5.660;2022-07-09T14:07:40;5.97;;;1.75;;
52494;SDS011;38405;53.212;5.660;2022-07-09T14:10:06;3.28;;;1.20;;
52494;SDS011;38405;53.212;5.660;2022-07-09T14:12:32;5.20;;;1.50;;
52494;SDS011;38405;53.212;5.660;2022-07-09T14:14:57;5.60;;;1.77;;
52494;SDS011;38405;53.212;5.660;2022-07-09T14:17:24;5.75;;;1.40;;
52494;SDS011;38405;53.212;5.660;2022-07-09T14:19:50;5.43;;;1.50;;
52494;SDS011;38405;53.212;5.660;2022-07-09T14:22:16;3.53;;;1.20;;
52494;SDS011;38405;53.212;5.660;2022-07-09T14:24:41;5.10;;;1.30;;
52494;SDS011;38405;53.212;5.660;2022-07-09T14:27:07;4.78;;;1.30;;
52494;SDS011;38405;53.212;5.660;2022-07-09T14:29:33;4.97;;;1.30;;
52494;SDS011;38405;53.212;5.660;2022-07-09T14:31:58;5.55;;;1.27;;
52494;SDS011;38405;53.212;5.660;2022-07-09T14:34:24;5.10;;;1.33;;
52494;SDS011;38405;53.212;5.660;2022-07-09T14:36:50;9.65;;;1.30;;
52494;SDS011;38405;53.212;5.660;2022-07-09T14:39:19;4.35;;;1.27;;
52494;SDS011;38405;53.212;5.660;2022-07-09T14:41:46;3.90;;;1.17;;
52494;SDS011;38405;53.212;5.660;2022-07-09T14:44:15;7.20;;;1.60;;
52494;SDS011;38405;53.212;5.660;2022-07-09T14:46:41;7.00;;;1.63;;
52494;SDS011;38405;53.212;5.660;2022-07-09T14:49:10;4.85;;;1.35;;
52494;SDS011;38405;53.212;5.660;2022-07-09T14:51:36;3.53;;;1.00;;